• Join FlightAware (Why Join?)
  • Login
  • US Flag 
01:51PM EDT


 

Airport Tracker/Info


-or-


 

Live Flight TrackerFlight Track Log ✈ SKW7397 ✈ 09-May-2013 ✈ KSLC - KSGU

Flight Track Log - Related Links

Times and Time Zones

All times are in EDT time to prevent confusion due to time zone crossing. See the SKW7397 flight status page for this flight to view local times or setup timezone preferences in your user account.

Time Position Orientation Groundspeed Altitude Reporting Facility
EDT Latitude Longitude Course Direction KTS MPH feet Rate Location/Type
12:06AM 40.8092 -112.0039 217° Southwest 170 196 5,000  Level Salt Lake Center
12:07AM 40.8264 -112.0672 290° West 216 249 6,700 1,740 Climbing Salt Lake Center
12:08AM 40.8167 -112.1856 264° West 277 319 8,900 1,920 Climbing Salt Lake Center
12:09AM 40.7792 -112.2533 234° Southwest 300 345 10,700 2,040 Climbing Salt Lake Center
12:09AM 40.7483 -112.2764 210° Southwest 306 352 11,400 1,620 Climbing Salt Lake Center
12:10AM 40.3417 -112.3483 189° South  Level FlightAware Approximate
12:10AM 40.6953 -112.2886 190° South 318 366 12,400  Level Salt Lake Center
12:11AM 40.2229 -112.4271 217° Southwest  Level FlightAware Approximate
12:11AM 40.5839 -112.3092 188° South 336 387 14,900  Level Salt Lake Center
12:12AM 40.4892 -112.3272 188° South 344 396 16,800 1,620 Climbing Salt Lake Center
12:13AM 40.3897 -112.3486 189° South 362 417 18,200 1,380 Climbing Salt Lake Center
12:14AM 40.2928 -112.3897 198° South 370 426 19,700 1,380 Climbing Salt Lake Center
12:15AM 40.1997 -112.4569 209° Southwest 381 438 21,100 1,260 Climbing Salt Lake Center
12:16AM 40.1042 -112.5242 208° Southwest 390 449 22,300 1,020 Climbing Salt Lake Center
12:17AM 40.0069 -112.5931 208° Southwest 401 461 23,300 1,020 Climbing Salt Lake Center
12:18AM 39.9100 -112.6631 209° Southwest 400 460 24,400 1,080 Climbing Salt Lake Center
12:19AM 39.8078 -112.7297 207° Southwest 407 468 25,600 780 Climbing Salt Lake Center
12:20AM 39.6889 -112.8119 208° Southwest 416 479 26,000 180 Climbing Salt Lake Center
12:21AM 39.5664 -112.8342 188° South 444 511 26,000  Level Salt Lake Center
12:22AM 39.4422 -112.8528 187° South 452 520 26,000  Level Salt Lake Center
12:23AM 39.3186 -112.8692 186° South 449 517 26,000  Level Salt Lake Center
12:24AM 39.1947 -112.8875 187° South 450 518 26,000  Level Salt Lake Center
12:25AM 39.0714 -112.9036 186° South 448 516 26,000  Level Salt Lake Center
12:26AM 38.9486 -112.9206 186° South 446 513 26,000  Level Salt Lake Center
12:27AM 38.8022 -112.9400 186° South 443 510 26,000  Level Salt Lake Center
12:28AM 38.6797 -112.9553 186° South 443 510 26,000  Level Salt Lake Center
12:29AM 38.5581 -112.9711 186° South 441 507 26,000  Level Salt Lake Center
12:30AM 38.4367 -112.9878 186° South 440 506 26,000  Level Salt Lake Center
12:31AM 38.3150 -113.0044 186° South 441 507 26,000  Level Salt Lake Center
12:32AM 38.1942 -113.0194 186° South 439 505 26,000 -1,020 Level Salt Lake Center
12:33AM 38.0711 -113.0350 186° South 444 511 24,000 -2,640 Descending Salt Lake Center
12:34AM 37.9494 -113.0506 186° South 444 511 20,700 -2,880 Descending Salt Lake Center
12:35AM 37.8136 -113.0600 183° South 418 481 18,100 -1,680 Descending Salt Lake Center
12:36AM 37.7108 -113.0272 166° South 391 450 17,300 -1,440 Descending Salt Lake Center
12:37AM 37.6147 -112.9986 167° South 371 427 15,200 -1,140 Descending Salt Lake Center
12:38AM 37.5269 -112.9936 177° South 330 380 15,000 -120 Descending Salt Lake Center
12:39AM 37.4411 -112.9856 176° South 315 362 15,000 -660 Level Salt Lake Center
12:40AM 37.3681 -113.0439 212° Southwest 320 368 13,700 -1,020 Descending Salt Lake Center
12:41AM 37.3153 -113.1256 231° Southwest 306 352 13,000 -900 Descending Salt Lake Center
12:42AM 37.2822 -113.2106 244° Southwest 279 321 11,900 -1,380 Descending Salt Lake Center
12:43AM 37.2444 -113.3042 243° Southwest 257 296 10,300 -1,560 Descending Salt Lake Center
12:44AM 37.2128 -113.3764 241° Southwest 242 278 8,800 -1,560 Descending Salt Lake Center
12:45AM 37.1775 -113.4328 232° Southwest 215 247 7,200 -1,620 Descending Salt Lake Center